sensor_id;sensor_type;location;lat;lon;timestamp;P1;durP1;ratioP1;P2;durP2;ratioP2
60935;SDS011;46804;51.786;19.520;2024-02-21T00:01:24;23.42;;;7.85;;
60935;SDS011;46804;51.786;19.520;2024-02-21T00:05:24;20.88;;;7.25;;
60935;SDS011;46804;51.786;19.520;2024-02-21T00:09:25;20.88;;;7.95;;
60935;SDS011;46804;51.786;19.520;2024-02-21T00:13:26;22.45;;;7.97;;
60935;SDS011;46804;51.786;19.520;2024-02-21T00:17:26;15.10;;;6.73;;
60935;SDS011;46804;51.786;19.520;2024-02-21T00:21:27;18.42;;;7.03;;
60935;SDS011;46804;51.786;19.520;2024-02-21T00:25:28;15.48;;;6.45;;
60935;SDS011;46804;51.786;19.520;2024-02-21T00:29:28;14.27;;;6.45;;
60935;SDS011;46804;51.786;19.520;2024-02-21T00:33:29;16.15;;;7.28;;
60935;SDS011;46804;51.786;19.520;2024-02-21T00:37:31;14.50;;;6.60;;
60935;SDS011;46804;51.786;19.520;2024-02-21T00:41:31;17.45;;;7.18;;
60935;SDS011;46804;51.786;19.520;2024-02-21T00:45:32;14.85;;;7.22;;
60935;SDS011;46804;51.786;19.520;2024-02-21T00:49:33;24.25;;;7.50;;
60935;SDS011;46804;51.786;19.520;2024-02-21T00:53:34;24.73;;;8.00;;
60935;SDS011;46804;51.786;19.520;2024-02-21T00:57:38;14.82;;;7.20;;
60935;SDS011;46804;51.786;19.520;2024-02-21T01:01:39;22.67;;;9.20;;
60935;SDS011;46804;51.786;19.520;2024-02-21T01:05:42;19.05;;;6.78;;
60935;SDS011;46804;51.786;19.520;2024-02-21T01:09:43;18.40;;;7.57;;
60935;SDS011;46804;51.786;19.520;2024-02-21T01:13:44;17.95;;;6.78;;
60935;SDS011;46804;51.786;19.520;2024-02-21T01:17:45;20.17;;;9.43;;
60935;SDS011;46804;51.786;19.520;2024-02-21T01:21:45;19.20;;;8.43;;
60935;SDS011;46804;51.786;19.520;2024-02-21T01:25:46;21.25;;;8.52;;
60935;SDS011;46804;51.786;19.520;2024-02-21T01:29:47;26.05;;;10.90;;
60935;SDS011;46804;51.786;19.520;2024-02-21T01:33:50;36.88;;;9.98;;
60935;SDS011;46804;51.786;19.520;2024-02-21T01:37:50;22.30;;;11.02;;
60935;SDS011;46804;51.786;19.520;2024-02-21T01:41:52;24.80;;;10.45;;
60935;SDS011;46804;51.786;19.520;2024-02-21T01:45:53;27.60;;;10.60;;
60935;SDS011;46804;51.786;19.520;2024-02-21T01:49:56;26.08;;;9.60;;
60935;SDS011;46804;51.786;19.520;2024-02-21T01:53:57;20.63;;;8.90;;
60935;SDS011;46804;51.786;19.520;2024-02-21T01:57:58;31.45;;;9.98;;
60935;SDS011;46804;51.786;19.520;2024-02-21T02:01:59;19.52;;;9.70;;
60935;SDS011;46804;51.786;19.520;2024-02-21T02:06:01;30.45;;;10.70;;
60935;SDS011;46804;51.786;19.520;2024-02-21T02:10:02;23.17;;;9.32;;
60935;SDS011;46804;51.786;19.520;2024-02-21T02:14:03;23.88;;;10.40;;
60935;SDS011;46804;51.786;19.520;2024-02-21T02:18:04;19.48;;;8.85;;
60935;SDS011;46804;51.786;19.520;2024-02-21T02:22:09;28.27;;;10.75;;
60935;SDS011;46804;51.786;19.520;2024-02-21T02:26:13;22.13;;;9.20;;
60935;SDS011;46804;51.786;19.520;2024-02-21T02:30:14;32.42;;;11.48;;
60935;SDS011;46804;51.786;19.520;2024-02-21T02:34:15;24.70;;;10.75;;
60935;SDS011;46804;51.786;19.520;2024-02-21T02:38:15;28.85;;;11.57;;
60935;SDS011;46804;51.786;19.520;2024-02-21T02:42:16;28.88;;;9.48;;
60935;SDS011;46804;51.786;19.520;2024-02-21T02:46:17;30.88;;;10.60;;
60935;SDS011;46804;51.786;19.520;2024-02-21T02:50:18;23.75;;;9.98;;
60935;SDS011;46804;51.786;19.520;2024-02-21T02:54:18;22.52;;;11.15;;
60935;SDS011;46804;51.786;19.520;2024-02-21T02:58:19;22.15;;;9.38;;
60935;SDS011;46804;51.786;19.520;2024-02-21T03:02:20;40.25;;;12.52;;
60935;SDS011;46804;51.786;19.520;2024-02-21T03:06:21;30.58;;;12.27;;
60935;SDS011;46804;51.786;19.520;2024-02-21T03:10:21;28.63;;;11.13;;
60935;SDS011;46804;51.786;19.520;2024-02-21T03:14:22;26.77;;;11.45;;
60935;SDS011;46804;51.786;19.520;2024-02-21T03:18:23;30.70;;;11.88;;
60935;SDS011;46804;51.786;19.520;2024-02-21T03:22:23;33.90;;;12.50;;
60935;SDS011;46804;51.786;19.520;2024-02-21T03:26:24;39.30;;;12.02;;
60935;SDS011;46804;51.786;19.520;2024-02-21T03:30:25;43.78;;;11.88;;
60935;SDS011;46804;51.786;19.520;2024-02-21T03:34:26;34.10;;;11.45;;
60935;SDS011;46804;51.786;19.520;2024-02-21T03:38:26;30.83;;;11.40;;
60935;SDS011;46804;51.786;19.520;2024-02-21T03:42:27;33.38;;;11.88;;
60935;SDS011;46804;51.786;19.520;2024-02-21T03:46:30;40.70;;;13.57;;
60935;SDS011;46804;51.786;19.520;2024-02-21T03:50:32;29.90;;;13.23;;
60935;SDS011;46804;51.786;19.520;2024-02-21T03:54:33;45.47;;;12.77;;
60935;SDS011;46804;51.786;19.520;2024-02-21T03:58:33;33.53;;;11.88;;
60935;SDS011;46804;51.786;19.520;2024-02-21T04:02:34;29.83;;;11.55;;
60935;SDS011;46804;51.786;19.520;2024-02-21T04:06:35;33.78;;;13.23;;
60935;SDS011;46804;51.786;19.520;2024-02-21T04:10:35;32.90;;;11.30;;
60935;SDS011;46804;51.786;19.520;2024-02-21T04:14:36;31.58;;;11.75;;
60935;SDS011;46804;51.786;19.520;2024-02-21T04:18:37;33.53;;;13.23;;
60935;SDS011;46804;51.786;19.520;2024-02-21T04:22:44;30.10;;;12.18;;
60935;SDS011;46804;51.786;19.520;2024-02-21T04:26:45;39.92;;;13.05;;
60935;SDS011;46804;51.786;19.520;2024-02-21T04:30:46;34.05;;;13.02;;
60935;SDS011;46804;51.786;19.520;2024-02-21T04:34:46;36.60;;;13.52;;
60935;SDS011;46804;51.786;19.520;2024-02-21T04:38:47;29.35;;;13.82;;
60935;SDS011;46804;51.786;19.520;2024-02-21T04:42:48;32.22;;;13.43;;
60935;SDS011;46804;51.786;19.520;2024-02-21T04:46:48;34.97;;;13.95;;
60935;SDS011;46804;51.786;19.520;2024-02-21T04:50:49;39.63;;;13.60;;
60935;SDS011;46804;51.786;19.520;2024-02-21T04:54:50;33.80;;;14.35;;
60935;SDS011;46804;51.786;19.520;2024-02-21T04:58:52;38.53;;;14.07;;
60935;SDS011;46804;51.786;19.520;2024-02-21T05:02:53;52.15;;;14.50;;
60935;SDS011;46804;51.786;19.520;2024-02-21T05:06:53;35.78;;;12.65;;
60935;SDS011;46804;51.786;19.520;2024-02-21T05:10:55;31.08;;;13.90;;
60935;SDS011;46804;51.786;19.520;2024-02-21T05:14:56;43.20;;;12.95;;
60935;SDS011;46804;51.786;19.520;2024-02-21T05:18:56;43.40;;;13.80;;
60935;SDS011;46804;51.786;19.520;2024-02-21T05:22:57;32.08;;;14.35;;
60935;SDS011;46804;51.786;19.520;2024-02-21T05:26:58;34.42;;;12.65;;
60935;SDS011;46804;51.786;19.520;2024-02-21T05:30:59;40.30;;;12.75;;
60935;SDS011;46804;51.786;19.520;2024-02-21T05:35:00;26.80;;;13.35;;
60935;SDS011;46804;51.786;19.520;2024-02-21T05:39:00;33.42;;;13.45;;
60935;SDS011;46804;51.786;19.520;2024-02-21T05:43:01;38.17;;;12.10;;
60935;SDS011;46804;51.786;19.520;2024-02-21T05:47:02;34.92;;;13.68;;
60935;SDS011;46804;51.786;19.520;2024-02-21T05:51:03;33.25;;;12.70;;
60935;SDS011;46804;51.786;19.520;2024-02-21T05:55:04;43.05;;;13.40;;
60935;SDS011;46804;51.786;19.520;2024-02-21T05:59:07;52.80;;;16.33;;
60935;SDS011;46804;51.786;19.520;2024-02-21T06:03:08;38.97;;;13.70;;
60935;SDS011;46804;51.786;19.520;2024-02-21T06:07:08;45.28;;;14.88;;
60935;SDS011;46804;51.786;19.520;2024-02-21T06:11:09;44.20;;;15.27;;
60935;SDS011;46804;51.786;19.520;2024-02-21T06:15:10;43.85;;;15.40;;
60935;SDS011;46804;51.786;19.520;2024-02-21T06:19:11;43.55;;;16.52;;
60935;SDS011;46804;51.786;19.520;2024-02-21T06:23:12;45.78;;;15.43;;
60935;SDS011;46804;51.786;19.520;2024-02-21T06:27:13;49.03;;;17.38;;
60935;SDS011;46804;51.786;19.520;2024-02-21T06:31:16;49.95;;;16.60;;
60935;SDS011;46804;51.786;19.520;2024-02-21T06:35:19;39.17;;;14.80;;
60935;SDS011;46804;51.786;19.520;2024-02-21T06:39:19;45.50;;;15.13;;
60935;SDS011;46804;51.786;19.520;2024-02-21T06:43:20;39.95;;;16.00;;
60935;SDS011;46804;51.786;19.520;2024-02-21T06:47:21;40.45;;;14.45;;
60935;SDS011;46804;51.786;19.520;2024-02-21T06:51:22;47.08;;;17.67;;
60935;SDS011;46804;51.786;19.520;2024-02-21T06:55:23;78.25;;;27.55;;
60935;SDS011;46804;51.786;19.520;2024-02-21T06:59:24;94.35;;;34.45;;
60935;SDS011;46804;51.786;19.520;2024-02-21T07:03:25;58.88;;;30.55;;
60935;SDS011;46804;51.786;19.520;2024-02-21T07:07:25;179.50;;;66.13;;
60935;SDS011;46804;51.786;19.520;2024-02-21T07:11:26;229.95;;;81.32;;
60935;SDS011;46804;51.786;19.520;2024-02-21T07:15:27;98.40;;;43.03;;
60935;SDS011;46804;51.786;19.520;2024-02-21T07:19:29;38.85;;;17.80;;
60935;SDS011;46804;51.786;19.520;2024-02-21T07:23:29;34.65;;;17.63;;
60935;SDS011;46804;51.786;19.520;2024-02-21T07:27:30;45.33;;;18.85;;
60935;SDS011;46804;51.786;19.520;2024-02-21T07:31:38;52.08;;;23.70;;
60935;SDS011;46804;51.786;19.520;2024-02-21T07:35:39;33.88;;;16.90;;
60935;SDS011;46804;51.786;19.520;2024-02-21T07:39:42;60.97;;;29.60;;
60935;SDS011;46804;51.786;19.520;2024-02-21T07:43:43;51.70;;;24.77;;
60935;SDS011;46804;51.786;19.520;2024-02-21T07:47:43;41.25;;;18.90;;
60935;SDS011;46804;51.786;19.520;2024-02-21T07:51:44;40.50;;;20.90;;
60935;SDS011;46804;51.786;19.520;2024-02-21T07:55:45;57.72;;;22.80;;
60935;SDS011;46804;51.786;19.520;2024-02-21T07:59:46;57.38;;;21.38;;
60935;SDS011;46804;51.786;19.520;2024-02-21T08:03:47;60.47;;;27.75;;
60935;SDS011;46804;51.786;19.520;2024-02-21T08:07:48;49.45;;;24.40;;
60935;SDS011;46804;51.786;19.520;2024-02-21T08:11:49;68.82;;;28.45;;
60935;SDS011;46804;51.786;19.520;2024-02-21T08:15:50;56.67;;;22.52;;
60935;SDS011;46804;51.786;19.520;2024-02-21T08:19:50;72.18;;;31.63;;
60935;SDS011;46804;51.786;19.520;2024-02-21T08:23:51;62.58;;;24.52;;
60935;SDS011;46804;51.786;19.520;2024-02-21T08:27:56;63.17;;;23.85;;
60935;SDS011;46804;51.786;19.520;2024-02-21T08:31:58;47.67;;;19.13;;
60935;SDS011;46804;51.786;19.520;2024-02-21T08:35:58;38.75;;;17.77;;
60935;SDS011;46804;51.786;19.520;2024-02-21T08:39:59;79.50;;;28.55;;
60935;SDS011;46804;51.786;19.520;2024-02-21T08:44:05;91.05;;;32.22;;
60935;SDS011;46804;51.786;19.520;2024-02-21T08:48:07;140.55;;;40.03;;
60935;SDS011;46804;51.786;19.520;2024-02-21T08:52:08;55.25;;;26.23;;
60935;SDS011;46804;51.786;19.520;2024-02-21T08:56:09;73.00;;;25.45;;
60935;SDS011;46804;51.786;19.520;2024-02-21T09:00:10;142.88;;;45.53;;
60935;SDS011;46804;51.786;19.520;2024-02-21T09:04:11;66.63;;;23.23;;
60935;SDS011;46804;51.786;19.520;2024-02-21T09:08:12;37.15;;;16.65;;
60935;SDS011;46804;51.786;19.520;2024-02-21T09:12:13;35.38;;;15.32;;
60935;SDS011;46804;51.786;19.520;2024-02-21T09:16:16;39.30;;;15.48;;
60935;SDS011;46804;51.786;19.520;2024-02-21T09:20:16;30.60;;;14.63;;
60935;SDS011;46804;51.786;19.520;2024-02-21T09:24:17;28.10;;;13.23;;
60935;SDS011;46804;51.786;19.520;2024-02-21T09:28:18;26.85;;;14.40;;
60935;SDS011;46804;51.786;19.520;2024-02-21T09:32:19;24.10;;;11.35;;
60935;SDS011;46804;51.786;19.520;2024-02-21T09:36:20;26.48;;;12.63;;
60935;SDS011;46804;51.786;19.520;2024-02-21T09:40:21;28.00;;;12.20;;
60935;SDS011;46804;51.786;19.520;2024-02-21T09:44:22;22.08;;;9.75;;
60935;SDS011;46804;51.786;19.520;2024-02-21T09:48:38;25.15;;;10.32;;
60935;SDS011;46804;51.786;19.520;2024-02-21T09:52:46;33.78;;;12.60;;
60935;SDS011;46804;51.786;19.520;2024-02-21T09:56:47;26.05;;;9.20;;
60935;SDS011;46804;51.786;19.520;2024-02-21T10:00:48;23.70;;;10.60;;
60935;SDS011;46804;51.786;19.520;2024-02-21T10:04:49;27.17;;;10.32;;
60935;SDS011;46804;51.786;19.520;2024-02-21T10:08:53;24.02;;;11.57;;
60935;SDS011;46804;51.786;19.520;2024-02-21T10:12:54;23.58;;;10.75;;
60935;SDS011;46804;51.786;19.520;2024-02-21T10:16:58;28.60;;;10.88;;
60935;SDS011;46804;51.786;19.520;2024-02-21T10:21:00;27.55;;;10.75;;
60935;SDS011;46804;51.786;19.520;2024-02-21T10:25:08;15.43;;;8.45;;
60935;SDS011;46804;51.786;19.520;2024-02-21T10:29:12;21.90;;;8.98;;
60935;SDS011;46804;51.786;19.520;2024-02-21T10:33:15;17.67;;;9.95;;
60935;SDS011;46804;51.786;19.520;2024-02-21T10:37:16;20.10;;;10.50;;
60935;SDS011;46804;51.786;19.520;2024-02-21T10:41:17;25.60;;;10.02;;
60935;SDS011;46804;51.786;19.520;2024-02-21T10:45:20;22.58;;;9.00;;
60935;SDS011;46804;51.786;19.520;2024-02-21T10:49:24;18.60;;;8.60;;
60935;SDS011;46804;51.786;19.520;2024-02-21T10:53:29;22.40;;;7.97;;
60935;SDS011;46804;51.786;19.520;2024-02-21T10:57:41;19.60;;;8.10;;
60935;SDS011;46804;51.786;19.520;2024-02-21T11:01:43;22.23;;;10.93;;
60935;SDS011;46804;51.786;19.520;2024-02-21T11:05:44;24.35;;;9.70;;
60935;SDS011;46804;51.786;19.520;2024-02-21T11:09:52;22.00;;;9.27;;
60935;SDS011;46804;51.786;19.520;2024-02-21T11:18:06;26.65;;;10.05;;
60935;SDS011;46804;51.786;19.520;2024-02-21T11:22:13;24.58;;;10.52;;
60935;SDS011;46804;51.786;19.520;2024-02-21T11:26:19;31.65;;;12.95;;
60935;SDS011;46804;51.786;19.520;2024-02-21T11:30:20;61.50;;;20.55;;
60935;SDS011;46804;51.786;19.520;2024-02-21T11:34:27;32.88;;;12.10;;
60935;SDS011;46804;51.786;19.520;2024-02-21T11:38:27;44.95;;;14.88;;
60935;SDS011;46804;51.786;19.520;2024-02-21T11:42:29;26.83;;;10.60;;
60935;SDS011;46804;51.786;19.520;2024-02-21T11:46:30;21.83;;;9.73;;
60935;SDS011;46804;51.786;19.520;2024-02-21T11:50:31;41.85;;;13.93;;
60935;SDS011;46804;51.786;19.520;2024-02-21T11:54:33;28.98;;;9.50;;
60935;SDS011;46804;51.786;19.520;2024-02-21T11:58:35;45.93;;;15.03;;
60935;SDS011;46804;51.786;19.520;2024-02-21T12:02:36;25.48;;;8.45;;
60935;SDS011;46804;51.786;19.520;2024-02-21T12:06:36;50.53;;;16.02;;
60935;SDS011;46804;51.786;19.520;2024-02-21T12:10:38;25.10;;;9.88;;
60935;SDS011;46804;51.786;19.520;2024-02-21T12:14:39;26.77;;;9.93;;
60935;SDS011;46804;51.786;19.520;2024-02-21T12:18:40;15.32;;;7.38;;
60935;SDS011;46804;51.786;19.520;2024-02-21T12:22:43;21.10;;;9.15;;
60935;SDS011;46804;51.786;19.520;2024-02-21T12:30:44;44.65;;;14.52;;
60935;SDS011;46804;51.786;19.520;2024-02-21T12:34:45;20.83;;;8.63;;
60935;SDS011;46804;51.786;19.520;2024-02-21T12:38:46;26.00;;;9.02;;
60935;SDS011;46804;51.786;19.520;2024-02-21T12:42:49;35.85;;;14.23;;
60935;SDS011;46804;51.786;19.520;2024-02-21T12:46:49;32.50;;;12.48;;
60935;SDS011;46804;51.786;19.520;2024-02-21T12:50:52;21.80;;;9.52;;
60935;SDS011;46804;51.786;19.520;2024-02-21T12:54:53;36.55;;;11.57;;
60935;SDS011;46804;51.786;19.520;2024-02-21T13:02:58;22.52;;;9.82;;
60935;SDS011;46804;51.786;19.520;2024-02-21T13:06:59;23.98;;;7.80;;
60935;SDS011;46804;51.786;19.520;2024-02-21T13:11:00;29.88;;;11.65;;
60935;SDS011;46804;51.786;19.520;2024-02-21T13:15:01;23.10;;;10.85;;
60935;SDS011;46804;51.786;19.520;2024-02-21T13:19:02;28.73;;;11.23;;
60935;SDS011;46804;51.786;19.520;2024-02-21T13:23:03;18.98;;;8.30;;
60935;SDS011;46804;51.786;19.520;2024-02-21T13:27:04;24.58;;;11.57;;
60935;SDS011;46804;51.786;19.520;2024-02-21T13:31:05;13.98;;;7.72;;
60935;SDS011;46804;51.786;19.520;2024-02-21T13:35:06;20.02;;;8.57;;
60935;SDS011;46804;51.786;19.520;2024-02-21T13:39:07;19.65;;;8.63;;
60935;SDS011;46804;51.786;19.520;2024-02-21T13:43:09;25.45;;;9.10;;
60935;SDS011;46804;51.786;19.520;2024-02-21T13:47:09;22.42;;;9.27;;
60935;SDS011;46804;51.786;19.520;2024-02-21T13:51:11;24.42;;;9.73;;
60935;SDS011;46804;51.786;19.520;2024-02-21T13:55:12;17.00;;;9.27;;
60935;SDS011;46804;51.786;19.520;2024-02-21T13:59:13;18.45;;;8.60;;
60935;SDS011;46804;51.786;19.520;2024-02-21T14:03:14;18.33;;;8.82;;
60935;SDS011;46804;51.786;19.520;2024-02-21T14:07:14;16.80;;;8.65;;
60935;SDS011;46804;51.786;19.520;2024-02-21T14:11:15;22.05;;;8.57;;
60935;SDS011;46804;51.786;19.520;2024-02-21T14:15:16;20.05;;;9.48;;
60935;SDS011;46804;51.786;19.520;2024-02-21T14:19:17;16.63;;;7.53;;
60935;SDS011;46804;51.786;19.520;2024-02-21T14:23:19;15.65;;;7.68;;
60935;SDS011;46804;51.786;19.520;2024-02-21T14:27:19;15.10;;;7.38;;
60935;SDS011;46804;51.786;19.520;2024-02-21T14:31:20;18.95;;;5.78;;
60935;SDS011;46804;51.786;19.520;2024-02-21T14:35:21;11.07;;;5.63;;
60935;SDS011;46804;51.786;19.520;2024-02-21T14:39:22;18.20;;;5.50;;
60935;SDS011;46804;51.786;19.520;2024-02-21T14:43:23;11.68;;;4.90;;
60935;SDS011;46804;51.786;19.520;2024-02-21T14:47:24;16.35;;;6.28;;
60935;SDS011;46804;51.786;19.520;2024-02-21T14:51:24;15.95;;;5.70;;
60935;SDS011;46804;51.786;19.520;2024-02-21T14:55:25;22.25;;;7.90;;
60935;SDS011;46804;51.786;19.520;2024-02-21T14:59:25;19.83;;;8.67;;
60935;SDS011;46804;51.786;19.520;2024-02-21T15:03:26;13.82;;;6.85;;
60935;SDS011;46804;51.786;19.520;2024-02-21T15:07:28;24.23;;;10.80;;
60935;SDS011;46804;51.786;19.520;2024-02-21T15:11:29;21.70;;;9.68;;
60935;SDS011;46804;51.786;19.520;2024-02-21T15:15:30;22.48;;;10.05;;
60935;SDS011;46804;51.786;19.520;2024-02-21T15:19:31;18.58;;;10.63;;
60935;SDS011;46804;51.786;19.520;2024-02-21T15:23:33;32.95;;;9.75;;
60935;SDS011;46804;51.786;19.520;2024-02-21T15:27:34;18.67;;;9.38;;
60935;SDS011;46804;51.786;19.520;2024-02-21T15:31:36;25.42;;;11.75;;
60935;SDS011;46804;51.786;19.520;2024-02-21T15:35:38;25.23;;;11.93;;
60935;SDS011;46804;51.786;19.520;2024-02-21T15:39:38;25.65;;;12.57;;
60935;SDS011;46804;51.786;19.520;2024-02-21T15:43:39;26.23;;;10.63;;
60935;SDS011;46804;51.786;19.520;2024-02-21T15:47:40;23.88;;;12.38;;
60935;SDS011;46804;51.786;19.520;2024-02-21T15:51:41;29.48;;;11.32;;
60935;SDS011;46804;51.786;19.520;2024-02-21T15:55:42;24.33;;;10.93;;
60935;SDS011;46804;51.786;19.520;2024-02-21T15:59:43;29.20;;;12.00;;
60935;SDS011;46804;51.786;19.520;2024-02-21T16:03:44;25.70;;;12.18;;
60935;SDS011;46804;51.786;19.520;2024-02-21T16:07:45;27.88;;;11.38;;
60935;SDS011;46804;51.786;19.520;2024-02-21T16:11:46;23.52;;;11.32;;
60935;SDS011;46804;51.786;19.520;2024-02-21T16:15:47;27.52;;;10.98;;
60935;SDS011;46804;51.786;19.520;2024-02-21T16:19:49;24.70;;;12.43;;
60935;SDS011;46804;51.786;19.520;2024-02-21T16:23:49;27.00;;;12.48;;
60935;SDS011;46804;51.786;19.520;2024-02-21T16:27:50;23.70;;;11.00;;
60935;SDS011;46804;51.786;19.520;2024-02-21T16:31:51;26.73;;;12.82;;
60935;SDS011;46804;51.786;19.520;2024-02-21T16:35:53;29.92;;;13.38;;
60935;SDS011;46804;51.786;19.520;2024-02-21T16:39:55;26.77;;;14.15;;
60935;SDS011;46804;51.786;19.520;2024-02-21T16:43:55;25.38;;;12.82;;
60935;SDS011;46804;51.786;19.520;2024-02-21T16:47:56;22.77;;;11.35;;
60935;SDS011;46804;51.786;19.520;2024-02-21T16:51:57;31.90;;;15.27;;
60935;SDS011;46804;51.786;19.520;2024-02-21T16:55:58;26.98;;;14.65;;
60935;SDS011;46804;51.786;19.520;2024-02-21T17:00:03;35.95;;;14.68;;
60935;SDS011;46804;51.786;19.520;2024-02-21T17:04:11;25.13;;;13.18;;
60935;SDS011;46804;51.786;19.520;2024-02-21T17:08:15;28.60;;;14.25;;
60935;SDS011;46804;51.786;19.520;2024-02-21T17:12:16;30.27;;;16.35;;
60935;SDS011;46804;51.786;19.520;2024-02-21T17:16:16;30.45;;;15.55;;
60935;SDS011;46804;51.786;19.520;2024-02-21T17:20:17;26.85;;;13.63;;
60935;SDS011;46804;51.786;19.520;2024-02-21T17:24:18;34.92;;;14.95;;
60935;SDS011;46804;51.786;19.520;2024-02-21T17:28:19;35.65;;;15.63;;
60935;SDS011;46804;51.786;19.520;2024-02-21T17:32:20;30.35;;;16.67;;
60935;SDS011;46804;51.786;19.520;2024-02-21T17:36:20;25.88;;;13.10;;
60935;SDS011;46804;51.786;19.520;2024-02-21T17:40:21;28.45;;;11.88;;
60935;SDS011;46804;51.786;19.520;2024-02-21T17:44:22;41.33;;;18.35;;
60935;SDS011;46804;51.786;19.520;2024-02-21T17:48:23;50.50;;;21.75;;
60935;SDS011;46804;51.786;19.520;2024-02-21T17:52:24;56.97;;;23.58;;
60935;SDS011;46804;51.786;19.520;2024-02-21T17:56:27;46.50;;;19.35;;
60935;SDS011;46804;51.786;19.520;2024-02-21T18:00:27;38.20;;;17.92;;
60935;SDS011;46804;51.786;19.520;2024-02-21T18:04:31;27.38;;;13.18;;
60935;SDS011;46804;51.786;19.520;2024-02-21T18:08:32;35.25;;;15.98;;
60935;SDS011;46804;51.786;19.520;2024-02-21T18:12:33;30.05;;;14.93;;
60935;SDS011;46804;51.786;19.520;2024-02-21T18:16:33;25.70;;;11.95;;
60935;SDS011;46804;51.786;19.520;2024-02-21T18:20:35;22.48;;;10.20;;
60935;SDS011;46804;51.786;19.520;2024-02-21T18:24:40;21.25;;;11.63;;
60935;SDS011;46804;51.786;19.520;2024-02-21T18:28:40;23.23;;;10.40;;
60935;SDS011;46804;51.786;19.520;2024-02-21T18:32:42;20.15;;;9.88;;
60935;SDS011;46804;51.786;19.520;2024-02-21T18:36:43;24.80;;;10.77;;
60935;SDS011;46804;51.786;19.520;2024-02-21T18:40:43;21.38;;;10.98;;
60935;SDS011;46804;51.786;19.520;2024-02-21T18:44:44;25.83;;;12.27;;
60935;SDS011;46804;51.786;19.520;2024-02-21T18:48:46;25.70;;;11.98;;
60935;SDS011;46804;51.786;19.520;2024-02-21T18:52:47;22.58;;;10.70;;
60935;SDS011;46804;51.786;19.520;2024-02-21T18:56:52;24.35;;;13.10;;
60935;SDS011;46804;51.786;19.520;2024-02-21T19:00:53;26.85;;;12.77;;
60935;SDS011;46804;51.786;19.520;2024-02-21T19:04:54;29.85;;;13.50;;
60935;SDS011;46804;51.786;19.520;2024-02-21T19:08:54;31.30;;;13.50;;
60935;SDS011;46804;51.786;19.520;2024-02-21T19:12:56;23.80;;;12.63;;
60935;SDS011;46804;51.786;19.520;2024-02-21T19:16:56;20.90;;;11.35;;
60935;SDS011;46804;51.786;19.520;2024-02-21T19:20:57;24.05;;;11.82;;
60935;SDS011;46804;51.786;19.520;2024-02-21T19:24:58;26.60;;;13.10;;
60935;SDS011;46804;51.786;19.520;2024-02-21T19:29:02;25.95;;;12.93;;
60935;SDS011;46804;51.786;19.520;2024-02-21T19:33:03;28.90;;;13.23;;
60935;SDS011;46804;51.786;19.520;2024-02-21T19:37:04;27.95;;;12.32;;
60935;SDS011;46804;51.786;19.520;2024-02-21T19:41:07;35.15;;;16.67;;
60935;SDS011;46804;51.786;19.520;2024-02-21T19:45:08;44.00;;;18.90;;
60935;SDS011;46804;51.786;19.520;2024-02-21T19:49:09;20.63;;;11.88;;
60935;SDS011;46804;51.786;19.520;2024-02-21T19:53:09;27.40;;;14.27;;
60935;SDS011;46804;51.786;19.520;2024-02-21T19:57:10;30.63;;;14.57;;
60935;SDS011;46804;51.786;19.520;2024-02-21T20:01:13;35.40;;;14.60;;
60935;SDS011;46804;51.786;19.520;2024-02-21T20:05:13;33.38;;;15.95;;
60935;SDS011;46804;51.786;19.520;2024-02-21T20:09:15;33.72;;;16.35;;
60935;SDS011;46804;51.786;19.520;2024-02-21T20:13:16;39.33;;;18.90;;
60935;SDS011;46804;51.786;19.520;2024-02-21T20:17:17;33.80;;;15.00;;
60935;SDS011;46804;51.786;19.520;2024-02-21T20:21:18;37.50;;;16.38;;
60935;SDS011;46804;51.786;19.520;2024-02-21T20:25:19;39.05;;;18.23;;
60935;SDS011;46804;51.786;19.520;2024-02-21T20:29:20;39.08;;;18.17;;
60935;SDS011;46804;51.786;19.520;2024-02-21T20:33:21;39.22;;;18.75;;
60935;SDS011;46804;51.786;19.520;2024-02-21T20:37:22;31.30;;;15.43;;
60935;SDS011;46804;51.786;19.520;2024-02-21T20:41:22;33.75;;;16.40;;
60935;SDS011;46804;51.786;19.520;2024-02-21T20:45:23;29.10;;;15.02;;
60935;SDS011;46804;51.786;19.520;2024-02-21T20:49:24;37.08;;;17.17;;
60935;SDS011;46804;51.786;19.520;2024-02-21T20:53:25;50.55;;;20.85;;
60935;SDS011;46804;51.786;19.520;2024-02-21T20:57:28;58.65;;;24.23;;
60935;SDS011;46804;51.786;19.520;2024-02-21T21:01:28;47.40;;;19.63;;
60935;SDS011;46804;51.786;19.520;2024-02-21T21:05:29;44.03;;;19.00;;
60935;SDS011;46804;51.786;19.520;2024-02-21T21:09:30;33.35;;;15.35;;
60935;SDS011;46804;51.786;19.520;2024-02-21T21:13:31;42.45;;;16.95;;
60935;SDS011;46804;51.786;19.520;2024-02-21T21:21:35;33.05;;;15.77;;
60935;SDS011;46804;51.786;19.520;2024-02-21T21:25:36;38.45;;;15.63;;
60935;SDS011;46804;51.786;19.520;2024-02-21T21:29:38;40.08;;;16.55;;
60935;SDS011;46804;51.786;19.520;2024-02-21T21:33:40;30.98;;;14.80;;
60935;SDS011;46804;51.786;19.520;2024-02-21T21:37:41;33.15;;;15.50;;
60935;SDS011;46804;51.786;19.520;2024-02-21T21:41:42;27.52;;;14.95;;
60935;SDS011;46804;51.786;19.520;2024-02-21T21:45:44;33.45;;;14.65;;
60935;SDS011;46804;51.786;19.520;2024-02-21T21:49:44;36.00;;;15.65;;
60935;SDS011;46804;51.786;19.520;2024-02-21T21:53:45;38.70;;;18.13;;
60935;SDS011;46804;51.786;19.520;2024-02-21T21:57:46;29.75;;;13.02;;
60935;SDS011;46804;51.786;19.520;2024-02-21T22:01:47;41.50;;;15.50;;
60935;SDS011;46804;51.786;19.520;2024-02-21T22:05:48;38.22;;;13.18;;
60935;SDS011;46804;51.786;19.520;2024-02-21T22:09:49;25.77;;;13.52;;
60935;SDS011;46804;51.786;19.520;2024-02-21T22:13:50;25.45;;;12.50;;
60935;SDS011;46804;51.786;19.520;2024-02-21T22:17:53;29.60;;;13.23;;
60935;SDS011;46804;51.786;19.520;2024-02-21T22:25:55;25.55;;;11.60;;
60935;SDS011;46804;51.786;19.520;2024-02-21T22:29:56;23.85;;;11.65;;
60935;SDS011;46804;51.786;19.520;2024-02-21T22:33:58;23.30;;;10.07;;
60935;SDS011;46804;51.786;19.520;2024-02-21T22:37:58;23.02;;;10.38;;
60935;SDS011;46804;51.786;19.520;2024-02-21T22:41:59;17.95;;;10.48;;
60935;SDS011;46804;51.786;19.520;2024-02-21T22:46:00;22.85;;;10.98;;
60935;SDS011;46804;51.786;19.520;2024-02-21T22:50:01;26.67;;;11.85;;
60935;SDS011;46804;51.786;19.520;2024-02-21T22:54:01;22.55;;;11.05;;
60935;SDS011;46804;51.786;19.520;2024-02-21T22:58:03;20.23;;;10.80;;
60935;SDS011;46804;51.786;19.520;2024-02-21T23:02:04;22.02;;;10.40;;
60935;SDS011;46804;51.786;19.520;2024-02-21T23:06:04;22.45;;;10.00;;
60935;SDS011;46804;51.786;19.520;2024-02-21T23:10:05;25.73;;;12.20;;
60935;SDS011;46804;51.786;19.520;2024-02-21T23:14:06;25.35;;;10.90;;
60935;SDS011;46804;51.786;19.520;2024-02-21T23:18:07;21.80;;;10.85;;
60935;SDS011;46804;51.786;19.520;2024-02-21T23:22:08;23.35;;;11.07;;
60935;SDS011;46804;51.786;19.520;2024-02-21T23:26:08;24.25;;;10.73;;
60935;SDS011;46804;51.786;19.520;2024-02-21T23:30:11;19.92;;;10.38;;
60935;SDS011;46804;51.786;19.520;2024-02-21T23:34:11;25.50;;;11.63;;